Raymond, Washington
Current Conditions -  °F | °C
As of 5:15 PM on Thursday 27 Nov 2014 (Local Time) from KHQM Reporting Station
Haze Haze  
Wind Chill: 56°   Ceiling: 1100
Heat Index: 56°   Visibility: 6mi
Dew Point: 54°   Wind: 20mph
Humidity: 93%   Direction: 190°S
Pressure: 29.78"   Gusts: NA
Location:  46.69°N, 123.73°W
Report Text: KHQM 280115Z AUTO 19017KT 6SM BR SCT007 BKN011 OVC025 13/12 A2978 RMK AO2 RAE04 P0000 T01330122
Loading
Personal Weather Stations






























Interactive Weather Map New forecast layout! Learn more

10-Day Weather Forecast

Advertisements
Track Severe Weather on mobile